Sant Antoni de Portmany, Spain
Current Conditions -  °F | °C
As of 2:30 AM on Tuesday 21 Oct 2014 (Local Time) from LEIB Reporting Station
Few Clouds Few Clouds  
Wind Chill: 63°   Ceiling: Unl
Heat Index: 63°   Visibility: 6mi
Dew Point: 55°   Wind: 2mph
Humidity: 77%   Direction: NA
Pressure: 30.12"   Gusts: NA
Location:  38.98°N, 1.3°E
Report Text: LEIB 210030Z VRB02KT 9000 FEW005 17/13 Q1020 TEMPO BKN005
Loading
Personal Weather Stations






























Interactive Weather Map
Tropical Storm Tracking
New forecast layout! Learn more

10-Day Weather Forecast

Advertisements
Track Severe Weather on mobile